Terminal Aerodrome Forecast
Issued by NWS Charleston, WV

Current Version | Previous Version | Text Only | Print | Product List | Glossary Off
Versions: 1 2 3 4 5 6 7 8 9 10 11 12 13 14 15 16 17 18 19 20 21 22

017
FTUS41 KRLX 021126
TAFBKW
TAF
KBKW 021126Z 0212/0312 24007KT P6SM SCT020
     FM021300 28008KT P6SM BKN040
     FM021500 28011G17KT P6SM BKN035
     FM030100 30010KT P6SM BKN030
     FM030300 30009KT P6SM BKN015=

USA.gov is the U.S. government's official web portal to all federal, state and local government web resources and services.